Airfield :
LOGIN :

Register | Disclaimer

   EN    FR    IT 

 










Legend :    VFR   Marginal VFR   IFR   Intensive IFR   Very Intensive IFR
Visi :
Ceiling :
>= 8 km
>= 3000ft
5 to 8 km
1000 to 3000 ft
1500m to 5 km
500 to 1000 ft
800 to 1500m
200 to 500 ft
< 800m
< 200 ft
Symbols :   Thunderstorms  Fog  Heavy snow  Heavy precipitations  Wind > 20 kt
SIGMETs :     Misc.  Thunderstorms  Icing  Turbulence  Mountain Waves  Volcanic Ashes






- Airport Elevation : 1306 ft
- IATA code : ACH


LSZR - Alten Rhein

CURRENT METAR :
  • 021620Z AUTO 09003KT CAVOK 12/02 Q1010

EXPIRED METARs :
  • 021550Z AUTO VRB02KT CAVOK 13/01 Q1010
  • 021520Z AUTO 01003KT 330V100 CAVOK 13/01 Q1010
  • 021450Z 34004KT 280V040 CAVOK 13/01 Q1010 NOSIG RMK J
  • 021420Z 30005KT 260V330 CAVOK 12/M01 Q1010 NOSIG RMK J
  • 021350Z 30005KT 260V330 CAVOK 12/M01 Q1011 NOSIG RMK I

TAF TAF LSZR
Valid from the 02 at 15:00 until the 03 at 00:00 UTC


021425Z 0215/0224 30005KT CAVOK
TEMPO 0216/0224 9999 SCT060
ATIS : +41 71 858 51 66



MET'MAP, your aeronautical weather chart ! - Copyright ORBIFLY December 2007 - Disclaimer

ORBIFLY MET'MAP TEAM :

Programming & Development : Alexandra Zaïnal
Concept & original design : Baudouin d'Aumeries
Assistance for programming : Marc-Olivier Méhu
Technical & hardware support : Manuel Goepfert

Contact : metmap@orbifly.com




SOURCES & CREDITS :

   NOAA